Skip Navigation Links
NOAA logo - Click to go to the NOAA homepage
NOAA's National Weather Service
Alaska Aviation Weather Unit
  NWS logo - Click to go to the NWS homepage
Left Navbar Graphic     23 AKDT = 07 GMT

   
NOAA is celebrating 200 years of science, service, and stewardship. Visit the NOAA 200th celebration Web site to learn more.
USA.gov is the U.S. Government's official Web portal to all Federal, state and local government Web resources and services.
Facebook
NWS on Facebook

Important Change Regarding the AAWU Web Presence

 

Over the last several months, the AAWU has been working to navigate its webpages to a nationally supported server. Security, as well as other needs, have necessitated the change.  In the process, we have made an effort to enhance the functionality of our website, as well as some of our products. As of June 20, 2017, aawu.arh.noaa.gov will be discontinued. The new AAWU web address is weather.gov/aawu. It is now live and will run in-parallel with the old site until it is discontinued. Please send any feedback or questions regarding the new webpages to nws.ar.aawu.webauthors@noaa.gov.  Thank you for your patience during this time of transition.
AAWU Home :: Display TAF Add Bookmark
TAF CYUB 240238Z 2402/2405 34010G20KT P6SM SCT005 OVC010 TEMPO
     2402/2405 2SM -SN BR OVC005
    RMK NXT FCST WILL BE ISSUED AT 241445Z=

METAR CYUB 240100Z 35012KT 15SM OVC007 00/M01 A2981 RMK SC8 CIG RAG SLP097= SPECI CYUB 240154Z 36011KT 10SM VCFG OVC005 M01/M02 A2982 RMK SC8 SLP100= METAR CYUB 240200Z CCA 35011G16KT 10SM VCFG OVC005 M01/M02 A2982 RMK SC8 CIG RAG VIS N-NE 5BR SLP101= SPECI CYUB 240227Z 35013KT 5SM BR BKN005 OVC009 OVC210 M01/M02 A2982 RMK SC7SC1CI1 CI TR VIS S10 SLP100= SPECI CYUB 240234Z 35013KT 5SM -SN BR OVC009 OVC210 M01/M02 A2982 RMK SC8CI1 CI TR CIG RAG VIS SSE7 SLP100= METAR CYUB 240300Z 35013KT 5SM -SHSN BR OVC009 M01/M02 A2983 RMK SC8 CIG RAG SLP102= METAR CYUB 240400Z 34011KT 7SM VCSH VCFG OVC008 OVC050 M01/M02 A2983 RMK SC8SC1 SC TR INTMT -SHSN VIS N 5BR SLP104= SPECI CYUB 240457Z 34010G15KT 7SM VCSH BKN006 OVC200 M01/M02 A2984 RMK SC7CI1 INTMT -SHSN CIG RAG SLP106= METAR CYUB 240500Z 35012KT 7SM VCSH BKN006 OVC200 M01/M02 A2984 RMK SC7CI1 INTMT -SHSN CIG RAG SLP106=
 Alaska TAF Map

NOAA's National Weather Service
Alaska Aviation Weather Unit
6930 Sand Lake Road
Anchorage, AK 99502-1845
Disclaimer
Credits
Glossary
Privacy Policy
About Us
Career Opportunities
Contact AAWU Internet Services Site last modified: April, 17th 2012